CheckWX is a tool to help pilots better visualize weather data.  It is not intended as a substitute for an official pre-flight weather briefing.

08:14:19 UTC

CYYR TAF
Goose Bay Airport
Goose Bay, Canada
TAF CYYR 220530Z 2206/2306 25005KT P6SM FEW120 BECMG 2212/2214 28012G22KT FM221600 28015G25KT P6SM SCT030 FM222000 28015G25KT P6SM BKN030 BECMG 2222/2224 28010KT RMK NXT FCST BY 221200Z

Feb-22@
06:00 UTC

Feb-22 @ 06:00 UTC

Feb-22@
12:00 UTC

Feb-22 @ 12:00 UTC

TAF CYYR 220530Z 2206/2306 25005KT P6SM FEW120
Wind
  • 250° at 5 KTS
Cloud Levels
  • Few at 12,000' AGL

Feb-22@
12:00 UTC

Feb-22 @ 12:00 UTC

Feb-22@
16:00 UTC

Feb-22 @ 16:00 UTC

BECMG 2212/2214 28012G22KT

Becoming

BecomingConditions expected by Fri, Feb 22, 2019 @ 14:00 UTC

Wind
  • 280° at 12 KTS
  • {Gusting to 22 KTS
Cloud Levels
  • Few at 12,000' AGL

Feb-22@
16:00 UTC

Feb-22 @ 16:00 UTC

Feb-22@
20:00 UTC

Feb-22 @ 20:00 UTC

FM221600 28015G25KT P6SM SCT030

From

FromStandard forecast or significant change

Wind
  • 280° at 15 KTS
  • {Gusting to 25 KTS
Cloud Levels
  • Scattered at 3,000' AGL

Feb-22@
20:00 UTC

Feb-22 @ 20:00 UTC

Feb-22@
22:00 UTC

Feb-22 @ 22:00 UTC

FM222000 28015G25KT P6SM BKN030

From

FromStandard forecast or significant change

Wind
  • 280° at 15 KTS
  • {Gusting to 25 KTS
Cloud Levels
  • Broken at 3,000' AGL

Feb-22@
22:00 UTC

Feb-22 @ 22:00 UTC

Feb-23@
06:00 UTC

Feb-23 @ 06:00 UTC

BECMG 2222/2224 28010KT RMK NXT FCST BY 221200Z

Becoming

BecomingConditions expected by Sat, Feb 23, 2019 @ 00:00 UTC

Wind
  • 280° at 10 KTS
Cloud Levels
  • Broken at 3,000' AGL